Hughes Airport


Codes: PAHU/HUS
Name: Hughes Airport
City: Hughes
Country: United States
Elevation: 299 ft.
Wikipedia:

Photos at Hughes Airport


   Photos courtesy of SpottingLog. You can add your own sightings and photos by signing up for a free trial today.



No photos found.

Weather at Hughes Airport


Time (UTC)DescriptionTempratureWindCloud coverageVisibilityPressureHumidity
18-Apr-2024 00:00Overcast Clouds2°C7 mph, NE100%10000m1022hPa89%
18-Apr-2024 03:00Overcast Clouds2°C7 mph, NE100%10000m1021hPa90%
18-Apr-2024 06:00Overcast Clouds0°C4 mph, NE100%10000m1020hPa94%
18-Apr-2024 09:00Overcast Clouds-2°C4 mph, NE100%10000m1021hPa94%
18-Apr-2024 12:00Overcast Clouds-2°C4 mph, NE100%10000m1022hPa94%
18-Apr-2024 15:00Overcast Clouds-3°C4 mph, NE96%10000m1022hPa96%
18-Apr-2024 18:00Overcast Clouds2°C4 mph, NE97%10000m1022hPa91%
18-Apr-2024 21:00Overcast Clouds4°C4 mph, E98%10000m1023hPa90%
19-Apr-2024 00:00Overcast Clouds4°C4 mph, NE99%10000m1023hPa89%
19-Apr-2024 03:00Overcast Clouds3°C4 mph, E96%10000m1022hPa94%
19-Apr-2024 06:00Overcast Clouds-0°C4 mph, NE92%10000m1022hPa96%
19-Apr-2024 09:00Broken Clouds-1°C4 mph, NE80%10000m1023hPa96%
19-Apr-2024 12:00Overcast Clouds-2°C4 mph, NE89%10000m1022hPa96%
19-Apr-2024 15:00Broken Clouds-3°C4 mph, E53%10000m1021hPa97%
19-Apr-2024 18:00Broken Clouds1°C4 mph, NE64%10000m1021hPa91%
19-Apr-2024 21:00Broken Clouds3°C2 mph, NE77%10000m1020hPa84%
20-Apr-2024 00:00Scattered Clouds5°C2 mph, E49%10000m1020hPa79%
20-Apr-2024 03:00Few Clouds5°C2 mph, E14%10000m1019hPa82%
20-Apr-2024 06:00Few Clouds1°C2 mph, E15%10000m1019hPa95%
20-Apr-2024 09:00Scattered Clouds1°C2 mph, NE46%10000m1018hPa94%
20-Apr-2024 12:00Broken Clouds1°C2 mph, NE58%10000m1018hPa92%
20-Apr-2024 15:00Overcast Clouds1°C2 mph, NE88%10000m1017hPa90%
20-Apr-2024 18:00Overcast Clouds2°C2 mph, NE92%10000m1017hPa81%
20-Apr-2024 21:00Scattered Clouds5°C2 mph, N47%10000m1015hPa73%
21-Apr-2024 00:00Scattered Clouds6°C2 mph, N38%10000m1014hPa71%
21-Apr-2024 03:00Broken Clouds6°C2 mph, N63%10000m1013hPa76%
21-Apr-2024 06:00Broken Clouds2°C2 mph, N66%10000m1013hPa94%
21-Apr-2024 09:00Broken Clouds0°C2 mph, N61%10000m1014hPa95%
21-Apr-2024 12:00Broken Clouds0°C2 mph, NE67%10000m1014hPa94%
21-Apr-2024 15:00Broken Clouds-0°C2 mph, NE71%10000m1014hPa90%
21-Apr-2024 18:00Broken Clouds2°C2 mph, E71%10000m1014hPa73%
21-Apr-2024 21:00Broken Clouds4°C4 mph, E72%10000m1014hPa70%
22-Apr-2024 00:00Broken Clouds4°C4 mph, SE83%10000m1015hPa73%
22-Apr-2024 03:00Overcast Clouds4°C2 mph, S98%10000m1016hPa82%
22-Apr-2024 06:00Overcast Clouds2°C2 mph, E99%10000m1017hPa88%
22-Apr-2024 09:00Overcast Clouds2°C2 mph, SW100%10000m1018hPa92%
22-Apr-2024 12:00Light Snow1°C4 mph, S100%55m1019hPa99%
22-Apr-2024 15:00Light Snow1°C4 mph, S100%47m1020hPa99%
22-Apr-2024 18:00Light Snow2°C4 mph, S100%128m1020hPa97%
22-Apr-2024 21:00Light Snow3°C2 mph, S100%136m1019hPa97%